Time;durP1;ratioP1;P1;durP2;ratioP2;P2;SDS_P1;SDS_P2;PMS_P1;PMS_P2;Temp;Humidity;BMP_temperature;BMP_pressure;BME280_temperature;BME280_humidity;BME280_pressure;Samples;Min_cycle;Max_cycle;Signal;HPM_P1;HPM_P2
2024/02/11 00:02:11;;;;;;;24.03;14.63;;;8.00;99.90;;;;;;5010794;28;20467;-55
2024/02/11 00:04:37;;;;;;;24.60;15.20;;;8.00;99.90;;;;;;5006585;28;20462;-59
2024/02/11 00:07:03;;;;;;;22.63;14.07;;;8.00;99.90;;;;;;5009293;28;20438;-58
2024/02/11 00:09:29;;;;;;;22.73;13.93;;;8.00;99.90;;;;;;5010276;28;20704;-60
2024/02/11 00:11:55;;;;;;;24.43;14.40;;;8.00;99.90;;;;;;5008428;28;20187;-59
2024/02/11 00:14:21;;;;;;;21.37;15.03;;;8.00;99.90;;;;;;5006660;28;20208;-58
2024/02/11 00:16:47;;;;;;;23.03;14.60;;;8.00;99.90;;;;;;5008993;28;20554;-58
2024/02/11 00:19:12;;;;;;;23.80;14.10;;;8.00;99.90;;;;;;5010117;28;20216;-59
2024/02/11 00:21:38;;;;;;;21.50;14.00;;;8.00;99.90;;;;;;5009316;28;20521;-58
2024/02/11 00:24:04;;;;;;;20.90;12.87;;;8.00;99.90;;;;;;5008547;28;20782;-59
2024/02/11 00:26:30;;;;;;;23.70;14.13;;;8.00;99.90;;;;;;5006773;28;20203;-57
2024/02/11 00:28:57;;;;;;;20.37;12.30;;;8.00;99.90;;;;;;5010350;28;21614;-59
2024/02/11 00:31:24;;;;;;;22.17;12.93;;;8.00;99.90;;;;;;5009928;28;20673;-58
2024/02/11 00:33:55;;;;;;;20.90;13.47;;;8.00;99.90;;;;;;5004017;28;20467;-58
2024/02/11 00:36:21;;;;;;;20.07;12.23;;;8.00;99.90;;;;;;5011744;28;20510;-58
2024/02/11 00:38:46;;;;;;;20.70;12.73;;;8.00;99.90;;;;;;5009366;28;20899;-58
2024/02/11 00:41:12;;;;;;;24.67;12.87;;;8.00;99.90;;;;;;5005282;28;20771;-60
2024/02/11 00:43:37;;;;;;;20.17;13.13;;;8.00;99.90;;;;;;5003878;28;20188;-59
2024/02/11 00:46:04;;;;;;;20.50;11.83;;;8.00;99.90;;;;;;5009841;28;20168;-59
2024/02/11 00:48:30;;;;;;;21.83;11.70;;;8.00;99.90;;;;;;5008015;28;20656;-57
2024/02/11 00:50:56;;;;;;;19.73;12.37;;;8.00;99.90;;;;;;5008640;28;20455;-59
2024/02/11 00:53:24;;;;;;;22.70;12.00;;;8.00;99.90;;;;;;5008501;28;20282;-58
2024/02/11 00:55:50;;;;;;;17.87;11.00;;;8.00;99.90;;;;;;5007203;28;20475;-58
2024/02/11 00:58:15;;;;;;;19.63;11.93;;;8.00;99.90;;;;;;5009465;28;20765;-58
2024/02/11 01:00:44;;;;;;;16.40;9.93;;;8.00;99.90;;;;;;5008199;28;20197;-59
2024/02/11 01:03:13;;;;;;;16.77;11.17;;;8.00;99.90;;;;;;5012544;28;20183;-58
2024/02/11 01:05:43;;;;;;;13.20;8.67;;;8.00;99.90;;;;;;5007068;28;20436;-59
2024/02/11 01:08:10;;;;;;;14.50;9.60;;;8.00;99.90;;;;;;5009255;28;20533;-58
2024/02/11 01:10:35;;;;;;;13.90;9.13;;;8.00;99.90;;;;;;5008132;28;20953;-59
2024/02/11 01:13:02;;;;;;;15.27;9.77;;;8.00;99.90;;;;;;5011523;28;20481;-58
2024/02/11 01:15:28;;;;;;;13.27;8.70;;;8.00;99.90;;;;;;5009076;28;20173;-59
2024/02/11 01:17:53;;;;;;;13.00;8.80;;;8.00;99.90;;;;;;5008093;28;20466;-58
2024/02/11 01:20:19;;;;;;;9.73;6.43;;;8.00;99.90;;;;;;5006808;28;20192;-59
2024/02/11 01:22:47;;;;;;;8.87;5.00;;;8.00;99.90;;;;;;5005450;28;20177;-59
2024/02/11 01:25:19;;;;;;;3.50;2.33;;;7.90;99.90;;;;;;5008808;28;20192;-58
2024/02/11 01:27:45;;;;;;;3.00;2.27;;;7.90;99.90;;;;;;5007399;28;20789;-59
2024/02/11 01:30:11;;;;;;;2.30;1.70;;;7.80;99.90;;;;;;5008532;28;20517;-58
2024/02/11 01:32:36;;;;;;;1.47;1.37;;;7.80;99.90;;;;;;5006672;28;21088;-57
2024/02/11 01:35:02;;;;;;;1.40;1.30;;;7.70;99.90;;;;;;5000064;28;20451;-57
2024/02/11 01:37:27;;;;;;;1.40;1.30;;;7.70;99.90;;;;;;5001722;28;20184;-59
2024/02/11 01:39:53;;;;;;;1.60;1.50;;;7.60;99.90;;;;;;5020980;28;20199;-58
2024/02/11 01:42:19;;;;;;;2.00;1.30;;;7.50;99.90;;;;;;5009742;28;20180;-59
2024/02/11 01:44:44;;;;;;;0.80;0.80;;;7.50;99.90;;;;;;5007089;28;20165;-58
2024/02/11 01:47:10;;;;;;;1.80;0.97;;;7.50;99.90;;;;;;5012272;28;20178;-58
2024/02/11 01:49:37;;;;;;;23.83;1.57;;;7.40;99.90;;;;;;4999648;28;20201;-60
2024/02/11 01:52:05;;;;;;;1.80;0.77;;;7.40;99.90;;;;;;5006845;28;20683;-58
2024/02/11 01:54:31;;;;;;;1.00;0.90;;;7.30;99.90;;;;;;5008112;28;20952;-58
2024/02/11 01:56:57;;;;;;;1.43;0.80;;;7.30;99.90;;;;;;5006595;28;20522;-58
2024/02/11 01:59:24;;;;;;;1.20;1.03;;;7.20;99.90;;;;;;5006015;28;20440;-58
2024/02/11 02:01:50;;;;;;;1.73;0.90;;;7.20;99.90;;;;;;5007654;28;20411;-59
2024/02/11 02:04:15;;;;;;;1.90;0.70;;;7.10;99.90;;;;;;5007218;28;20493;-58
2024/02/11 02:06:42;;;;;;;0.80;0.80;;;7.00;99.90;;;;;;5007291;28;20181;-59
2024/02/11 02:09:10;;;;;;;0.70;0.70;;;7.00;99.90;;;;;;5007872;28;20188;-58
2024/02/11 02:11:38;;;;;;;0.80;0.70;;;6.90;99.90;;;;;;5007893;28;20411;-58
2024/02/11 02:14:05;;;;;;;1.17;0.80;;;6.90;99.90;;;;;;4999255;28;20558;-59
2024/02/11 02:16:30;;;;;;;0.70;0.70;;;6.80;99.90;;;;;;5005993;28;20439;-59
2024/02/11 02:18:56;;;;;;;0.70;0.70;;;6.80;99.90;;;;;;5004940;28;20427;-58
2024/02/11 02:21:27;;;;;;;1.67;0.70;;;6.70;99.90;;;;;;5008059;28;20196;-58
2024/02/11 02:23:53;;;;;;;0.70;0.70;;;6.70;99.90;;;;;;5005503;28;20183;-57
2024/02/11 02:26:18;;;;;;;1.00;0.80;;;6.60;99.90;;;;;;5007356;28;20793;-57
2024/02/11 02:28:44;;;;;;;0.80;0.80;;;6.60;99.90;;;;;;5007668;28;20180;-58
2024/02/11 02:31:10;;;;;;;0.70;0.70;;;6.50;99.90;;;;;;5004210;28;20199;-58
2024/02/11 02:33:36;;;;;;;0.80;0.80;;;6.50;99.90;;;;;;5006697;28;20204;-58
2024/02/11 02:36:03;;;;;;;1.20;1.10;;;6.40;99.90;;;;;;5002354;28;20494;-58
2024/02/11 02:38:28;;;;;;;0.70;0.70;;;6.40;99.90;;;;;;5005785;28;20431;-59
2024/02/11 02:40:54;;;;;;;0.97;0.73;;;6.30;99.90;;;;;;5005968;28;21102;-58
2024/02/11 02:43:20;;;;;;;1.63;0.80;;;6.30;99.90;;;;;;5006530;28;20184;-59
2024/02/11 02:45:45;;;;;;;0.70;0.70;;;6.30;99.90;;;;;;5009443;28;20184;-60
2024/02/11 02:48:11;;;;;;;1.33;1.00;;;6.20;99.90;;;;;;5012172;28;20718;-58
2024/02/11 02:50:37;;;;;;;1.57;0.80;;;6.10;99.90;;;;;;5009007;28;20216;-58
2024/02/11 02:53:03;;;;;;;0.70;0.70;;;6.10;99.90;;;;;;5010791;28;20255;-58
2024/02/11 02:55:29;;;;;;;0.80;0.80;;;6.10;99.90;;;;;;5003986;28;20193;-58
2024/02/11 02:57:54;;;;;;;4.00;0.70;;;6.10;99.90;;;;;;5009409;28;20898;-58
2024/02/11 03:00:21;;;;;;;0.80;0.60;;;6.00;99.90;;;;;;5013268;28;20192;-59
2024/02/11 03:02:47;;;;;;;0.90;0.90;;;6.00;99.90;;;;;;5012258;28;20828;-57
2024/02/11 03:05:12;;;;;;;0.80;0.80;;;6.00;99.90;;;;;;5011202;28;20423;-59
2024/02/11 03:07:41;;;;;;;1.10;0.77;;;5.90;99.90;;;;;;5009555;28;20891;-59
2024/02/11 03:10:07;;;;;;;0.90;0.90;;;5.90;99.90;;;;;;5010569;28;20785;-58
2024/02/11 03:12:33;;;;;;;0.80;0.80;;;5.90;99.90;;;;;;5008646;28;20437;-58
2024/02/11 03:14:59;;;;;;;1.00;1.00;;;5.80;99.90;;;;;;5012268;28;20470;-58
2024/02/11 03:17:24;;;;;;;0.80;0.80;;;5.70;99.90;;;;;;5011372;28;20604;-58
2024/02/11 03:19:50;;;;;;;1.13;1.13;;;5.60;99.90;;;;;;5010909;28;20196;-59
2024/02/11 03:22:15;;;;;;;1.17;1.17;;;5.50;99.90;;;;;;5010289;28;20250;-57
2024/02/11 03:24:44;;;;;;;1.10;1.10;;;5.40;99.90;;;;;;5008660;28;20180;-60
2024/02/11 03:27:10;;;;;;;1.40;1.30;;;5.40;99.90;;;;;;5010639;28;20249;-58
2024/02/11 03:29:36;;;;;;;1.13;1.13;;;5.30;99.90;;;;;;5008320;28;20973;-58
2024/02/11 03:32:02;;;;;;;1.13;1.13;;;5.20;99.90;;;;;;5009125;28;20180;-57
2024/02/11 03:34:27;;;;;;;1.40;1.30;;;5.10;99.90;;;;;;5011550;28;20230;-57
2024/02/11 03:36:53;;;;;;;1.20;1.20;;;5.10;99.90;;;;;;5009944;28;20614;-59
2024/02/11 03:39:19;;;;;;;1.33;1.20;;;5.00;99.90;;;;;;5010977;28;20600;-59
2024/02/11 03:41:48;;;;;;;1.30;1.20;;;5.00;99.90;;;;;;5013481;28;20188;-59
2024/02/11 03:44:14;;;;;;;1.77;1.67;;;4.90;99.90;;;;;;5006763;28;20479;-58
2024/02/11 03:46:39;;;;;;;1.30;1.23;;;4.90;99.90;;;;;;5008215;28;20954;-58
2024/02/11 03:49:05;;;;;;;1.23;1.23;;;4.80;99.90;;;;;;5010896;28;20172;-59
2024/02/11 03:51:31;;;;;;;1.50;1.40;;;4.80;99.90;;;;;;5006814;28;20643;-57
2024/02/11 03:54:00;;;;;;;1.13;1.10;;;4.80;99.90;;;;;;5009171;28;20228;-57
2024/02/11 03:56:26;;;;;;;1.47;1.37;;;4.80;99.90;;;;;;5004362;28;20412;-57
2024/02/11 03:58:52;;;;;;;1.60;1.50;;;4.70;99.90;;;;;;5010243;28;20404;-58
2024/02/11 04:01:18;;;;;;;1.43;1.33;;;4.70;99.90;;;;;;5006934;28;20455;-58
2024/02/11 04:03:44;;;;;;;1.20;1.20;;;4.70;99.90;;;;;;5010553;28;20430;-57
2024/02/11 04:06:11;;;;;;;1.57;1.47;;;4.70;99.90;;;;;;5008145;28;20191;-59
2024/02/11 04:08:41;;;;;;;1.10;1.10;;;4.70;99.90;;;;;;5007331;28;20642;-58
2024/02/11 04:11:09;;;;;;;1.40;1.30;;;4.70;99.90;;;;;;5010470;28;20435;-58
2024/02/11 04:13:36;;;;;;;1.60;1.50;;;4.60;99.90;;;;;;5009637;28;20451;-58
2024/02/11 04:16:11;;;;;;;1.30;1.30;;;4.60;99.90;;;;;;5001535;28;20490;-58
2024/02/11 04:18:40;;;;;;;1.43;1.33;;;4.60;99.90;;;;;;5006402;28;20427;-59
2024/02/11 04:21:06;;;;;;;1.20;1.20;;;4.60;99.90;;;;;;5007972;28;20457;-58
2024/02/11 04:23:32;;;;;;;1.30;1.30;;;4.60;99.90;;;;;;5006290;28;20518;-57
2024/02/11 04:26:01;;;;;;;1.00;1.00;;;4.50;99.90;;;;;;5008539;28;20188;-59
2024/02/11 04:28:28;;;;;;;1.30;1.20;;;4.50;99.90;;;;;;5009733;28;20458;-58
2024/02/11 04:30:55;;;;;;;1.20;1.20;;;4.50;99.90;;;;;;5008218;28;20431;-58
2024/02/11 04:33:22;;;;;;;1.80;1.47;;;4.60;99.90;;;;;;5008702;28;20415;-59
2024/02/11 04:35:47;;;;;;;1.30;1.23;;;4.60;99.90;;;;;;5010931;28;21032;-58
2024/02/11 04:38:13;;;;;;;1.57;1.47;;;4.60;99.90;;;;;;5010088;28;20443;-58
2024/02/11 04:40:39;;;;;;;2.03;1.60;;;4.60;99.90;;;;;;5008753;28;20287;-59
2024/02/11 04:43:05;;;;;;;1.70;1.60;;;4.60;99.90;;;;;;5008352;28;20651;-59
2024/02/11 04:45:31;;;;;;;1.50;1.40;;;4.60;99.90;;;;;;5009944;28;20456;-58
2024/02/11 04:48:00;;;;;;;1.83;1.70;;;4.60;99.90;;;;;;5009202;28;20176;-58
2024/02/11 04:50:34;;;;;;;1.83;1.73;;;4.60;99.90;;;;;;5006209;28;20197;-58
2024/02/11 04:53:02;;;;;;;1.40;1.33;;;4.50;99.90;;;;;;5008776;28;20470;-58
2024/02/11 04:55:38;;;;;;;1.77;1.67;;;4.50;99.90;;;;;;5009493;28;20469;-59
2024/02/11 04:58:05;;;;;;;1.70;1.60;;;4.60;99.90;;;;;;5005233;28;20419;-58
2024/02/11 05:00:33;;;;;;;1.60;1.50;;;4.50;99.90;;;;;;5007506;28;20469;-57
2024/02/11 05:03:03;;;;;;;1.67;1.53;;;4.60;99.90;;;;;;5003372;28;20431;-58
2024/02/11 05:05:31;;;;;;;1.87;1.60;;;4.50;99.90;;;;;;5009662;28;20423;-59
2024/02/11 05:07:57;;;;;;;1.50;1.40;;;4.50;99.90;;;;;;5006206;28;21116;-58
2024/02/11 05:10:24;;;;;;;2.47;1.33;;;4.50;99.90;;;;;;5008527;28;20443;-58
2024/02/11 05:12:50;;;;;;;2.83;1.73;;;4.50;99.90;;;;;;5005053;28;20475;-60
2024/02/11 05:15:20;;;;;;;1.70;1.60;;;4.50;99.90;;;;;;5004452;28;20571;-58
2024/02/11 05:17:48;;;;;;;2.90;2.00;;;4.40;99.90;;;;;;5009298;28;20573;-58
2024/02/11 05:20:24;;;;;;;2.07;1.97;;;4.40;99.90;;;;;;5006341;28;20451;-57
2024/02/11 05:22:56;;;;;;;2.50;1.60;;;4.40;99.90;;;;;;5004671;28;20415;-58
2024/02/11 05:25:23;;;;;;;1.97;1.83;;;4.40;99.90;;;;;;5008865;28;20507;-59
2024/02/11 05:27:51;;;;;;;1.87;1.70;;;4.50;99.90;;;;;;5009011;28;20628;-58
2024/02/11 05:30:17;;;;;;;1.80;1.70;;;4.40;99.90;;;;;;5006815;28;20523;-58
2024/02/11 05:32:45;;;;;;;1.83;1.73;;;4.50;99.90;;;;;;5003569;28;20931;-58
2024/02/11 05:35:13;;;;;;;1.90;1.80;;;4.50;99.90;;;;;;5006054;28;20638;-59
2024/02/11 05:37:39;;;;;;;2.07;1.87;;;4.50;99.90;;;;;;5008278;28;20435;-58
2024/02/11 05:40:09;;;;;;;2.13;1.97;;;4.40;99.90;;;;;;5009080;28;20455;-58
2024/02/11 05:42:38;;;;;;;2.13;1.93;;;4.50;99.90;;;;;;5007944;28;20431;-58
2024/02/11 05:45:04;;;;;;;2.63;2.37;;;4.50;99.90;;;;;;4997189;28;20526;-59
2024/02/11 05:47:30;;;;;;;3.13;2.50;;;4.50;99.90;;;;;;5003353;28;20446;-58
2024/02/11 05:49:56;;;;;;;2.23;2.00;;;4.50;99.90;;;;;;5006728;28;20430;-58
2024/02/11 05:52:21;;;;;;;2.50;2.30;;;4.40;99.90;;;;;;5008677;28;20412;-58
2024/02/11 05:54:47;;;;;;;2.30;2.10;;;4.40;99.90;;;;;;5006680;28;20235;-56
2024/02/11 05:57:13;;;;;;;2.67;2.47;;;4.40;99.90;;;;;;5006913;28;20610;-59
2024/02/11 05:59:42;;;;;;;2.13;2.03;;;4.50;99.90;;;;;;5007547;28;20276;-58
2024/02/11 06:02:09;;;;;;;2.07;1.90;;;4.40;99.90;;;;;;5008124;28;20254;-58
2024/02/11 06:04:34;;;;;;;2.77;2.53;;;4.40;99.90;;;;;;5004815;28;20479;-57
2024/02/11 06:07:00;;;;;;;3.00;2.60;;;4.50;99.90;;;;;;5008180;28;20443;-59
2024/02/11 06:09:25;;;;;;;2.57;2.37;;;4.50;99.90;;;;;;5007001;28;20571;-58
2024/02/11 06:11:53;;;;;;;3.33;2.20;;;4.50;99.90;;;;;;5007709;28;20188;-58
2024/02/11 06:14:19;;;;;;;2.77;2.57;;;4.50;99.90;;;;;;5008505;28;20274;-59
2024/02/11 06:16:45;;;;;;;4.70;2.70;;;4.50;99.90;;;;;;5006003;28;20902;-59
2024/02/11 06:19:10;;;;;;;2.50;2.30;;;4.50;99.90;;;;;;5006311;28;20255;-60
2024/02/11 06:21:36;;;;;;;3.13;2.50;;;4.50;99.90;;;;;;5004657;28;20188;-58
2024/02/11 06:24:05;;;;;;;3.07;2.53;;;4.50;99.90;;;;;;5003481;28;20215;-58
2024/02/11 06:26:30;;;;;;;2.67;2.47;;;4.50;99.90;;;;;;5011787;28;20187;-58
2024/02/11 06:28:58;;;;;;;2.70;2.43;;;4.50;99.90;;;;;;5011390;28;20423;-58
2024/02/11 06:31:24;;;;;;;2.70;2.37;;;4.50;99.90;;;;;;5009451;28;20290;-58
2024/02/11 06:33:50;;;;;;;4.60;3.10;;;4.50;99.90;;;;;;5013289;28;20609;-59
2024/02/11 06:36:16;;;;;;;3.10;2.70;;;4.50;99.90;;;;;;5011437;28;21017;-58
2024/02/11 06:38:43;;;;;;;3.50;3.20;;;4.50;99.90;;;;;;5010720;28;20654;-59
2024/02/11 06:41:09;;;;;;;3.50;2.37;;;4.50;99.90;;;;;;5011317;28;20459;-59
2024/02/11 06:43:35;;;;;;;3.07;2.67;;;4.50;99.90;;;;;;5011780;28;20442;-58
2024/02/11 06:46:03;;;;;;;3.23;2.70;;;4.50;99.90;;;;;;5010314;28;20181;-58
2024/02/11 06:48:28;;;;;;;3.77;3.00;;;4.50;99.90;;;;;;5014181;28;20181;-56
2024/02/11 06:50:54;;;;;;;4.07;3.20;;;4.50;99.90;;;;;;5009476;28;20466;-58
2024/02/11 06:53:20;;;;;;;4.77;3.70;;;4.60;99.90;;;;;;5009270;28;20187;-58
2024/02/11 06:55:47;;;;;;;3.87;3.00;;;4.60;99.90;;;;;;5011126;28;20334;-58
2024/02/11 06:58:12;;;;;;;4.17;3.60;;;4.60;99.90;;;;;;5011828;28;20910;-58
2024/02/11 07:00:38;;;;;;;3.57;2.90;;;4.60;99.90;;;;;;5008646;28;20437;-60
2024/02/11 07:03:04;;;;;;;4.57;3.30;;;4.60;99.90;;;;;;5021051;28;20215;-58
2024/02/11 07:05:33;;;;;;;6.13;3.60;;;4.60;99.90;;;;;;5011158;28;20526;-58
2024/02/11 07:08:02;;;;;;;4.17;3.20;;;4.60;99.90;;;;;;5011315;28;20836;-59
2024/02/11 07:10:28;;;;;;;4.57;3.60;;;4.60;99.90;;;;;;5006379;28;20452;-58
2024/02/11 07:12:55;;;;;;;6.07;4.07;;;4.70;99.90;;;;;;5010736;28;20455;-59
2024/02/11 07:15:20;;;;;;;4.90;3.90;;;4.60;99.90;;;;;;5012557;28;20524;-58
2024/02/11 07:17:46;;;;;;;4.40;3.70;;;4.60;99.90;;;;;;5011642;28;20418;-58
2024/02/11 07:20:14;;;;;;;6.90;3.90;;;4.70;99.90;;;;;;5007055;28;20205;-58
2024/02/11 07:22:43;;;;;;;6.57;4.10;;;4.70;99.90;;;;;;5011777;28;20222;-58
2024/02/11 07:25:09;;;;;;;5.53;4.17;;;4.70;99.90;;;;;;5007786;28;20440;-58
2024/02/11 07:27:35;;;;;;;6.10;4.37;;;4.70;99.90;;;;;;5010768;28;20431;-56
2024/02/11 07:30:01;;;;;;;7.47;4.70;;;4.70;99.90;;;;;;5005815;28;20548;-58
2024/02/11 07:32:28;;;;;;;6.67;4.90;;;4.70;99.90;;;;;;5013836;28;20815;-58
2024/02/11 07:34:56;;;;;;;11.77;4.80;;;4.80;99.90;;;;;;5009038;28;20451;-59
2024/02/11 07:37:25;;;;;;;8.40;4.43;;;4.80;99.90;;;;;;5010874;28;20967;-58
2024/02/11 07:39:50;;;;;;;7.90;4.90;;;4.80;99.90;;;;;;5010025;28;21104;-58
2024/02/11 07:42:16;;;;;;;8.60;5.37;;;4.80;99.90;;;;;;5011682;28;20415;-58
2024/02/11 07:44:42;;;;;;;7.30;5.10;;;4.80;99.90;;;;;;5009294;28;20188;-59
2024/02/11 07:47:09;;;;;;;14.00;6.03;;;4.80;99.90;;;;;;5008884;28;20185;-59
2024/02/11 07:49:36;;;;;;;8.90;5.57;;;4.80;99.90;;;;;;5009523;28;20192;-56
2024/02/11 07:52:02;;;;;;;8.90;5.73;;;4.90;99.90;;;;;;5011866;28;20432;-58
2024/02/11 07:54:28;;;;;;;8.87;5.53;;;4.80;99.90;;;;;;5006740;28;20455;-58
2024/02/11 07:56:53;;;;;;;11.47;5.97;;;4.90;99.90;;;;;;5002033;28;20477;-58
2024/02/11 07:59:19;;;;;;;10.23;6.30;;;4.90;99.90;;;;;;5009317;28;20208;-58
2024/02/11 08:01:45;;;;;;;15.33;6.33;;;4.90;99.90;;;;;;5007807;28;20589;-58
2024/02/11 08:04:12;;;;;;;8.17;5.57;;;4.90;99.90;;;;;;5007292;28;20185;-59
2024/02/11 08:06:39;;;;;;;13.80;6.77;;;5.00;99.90;;;;;;5009548;28;20797;-58
2024/02/11 08:09:09;;;;;;;12.10;6.50;;;5.00;99.90;;;;;;5009293;28;20435;-58
2024/02/11 08:11:35;;;;;;;10.27;5.87;;;5.00;99.90;;;;;;5004236;28;20494;-57
2024/02/11 08:14:00;;;;;;;9.07;5.43;;;5.00;99.90;;;;;;5007961;28;20974;-57
2024/02/11 08:16:26;;;;;;;13.20;6.60;;;5.10;99.90;;;;;;5009514;28;20450;-56
2024/02/11 08:18:54;;;;;;;11.27;6.03;;;5.10;99.90;;;;;;5008780;28;20187;-58
2024/02/11 08:21:20;;;;;;;12.13;6.03;;;5.10;99.90;;;;;;5009256;28;20200;-58
2024/02/11 08:23:45;;;;;;;11.37;6.17;;;5.10;99.90;;;;;;5004477;28;20445;-57
2024/02/11 08:26:11;;;;;;;12.20;6.33;;;5.20;99.90;;;;;;5008623;28;20181;-58
2024/02/11 08:28:37;;;;;;;9.13;4.93;;;5.20;99.90;;;;;;5006940;28;20216;-60
2024/02/11 08:31:04;;;;;;;10.37;6.33;;;5.20;99.90;;;;;;5009915;28;20208;-58
2024/02/11 08:33:30;;;;;;;13.87;5.83;;;5.20;99.90;;;;;;5009238;28;20192;-59
2024/02/11 08:35:56;;;;;;;7.53;4.50;;;5.30;99.90;;;;;;5008239;28;20917;-58
2024/02/11 08:38:22;;;;;;;10.40;5.40;;;5.30;99.90;;;;;;5008782;28;20172;-54
2024/02/11 08:40:48;;;;;;;9.90;5.63;;;5.30;99.90;;;;;;5003364;28;20478;-59
2024/02/11 08:43:13;;;;;;;13.40;5.70;;;5.30;99.90;;;;;;4995101;28;20203;-59
2024/02/11 08:45:39;;;;;;;10.07;5.30;;;5.40;99.90;;;;;;5001093;28;20260;-58
2024/02/11 08:48:05;;;;;;;7.40;4.87;;;5.40;99.90;;;;;;5005458;28;20181;-58
2024/02/11 08:50:31;;;;;;;7.40;5.27;;;5.40;99.90;;;;;;5004966;28;20279;-58
2024/02/11 08:52:57;;;;;;;8.40;4.47;;;5.40;99.90;;;;;;5007954;28;20431;-58
2024/02/11 08:55:22;;;;;;;8.83;4.70;;;5.40;99.90;;;;;;5004932;28;20470;-58
2024/02/11 08:57:48;;;;;;;9.53;4.43;;;5.50;99.90;;;;;;5004067;28;20182;-58
2024/02/11 09:00:16;;;;;;;12.37;4.80;;;5.50;99.90;;;;;;4998611;28;20280;-59
2024/02/11 09:02:42;;;;;;;7.53;4.30;;;5.50;99.90;;;;;;5006265;28;20169;-59
2024/02/11 09:05:08;;;;;;;7.40;4.60;;;5.60;99.90;;;;;;5001500;28;20431;-60
2024/02/11 09:07:34;;;;;;;9.10;4.30;;;5.60;99.90;;;;;;5015517;28;20436;-59
2024/02/11 09:10:05;;;;;;;7.03;4.73;;;5.70;99.90;;;;;;5003420;28;20960;-59
2024/02/11 09:12:30;;;;;;;9.60;4.97;;;5.80;99.90;;;;;;5004508;28;20747;-58
2024/02/11 09:14:57;;;;;;;10.33;5.10;;;5.80;99.90;;;;;;5003893;28;21297;-59
2024/02/11 09:17:24;;;;;;;6.23;4.27;;;5.90;99.90;;;;;;5004330;28;20176;-59
2024/02/11 09:19:52;;;;;;;4.90;3.67;;;5.90;99.90;;;;;;5004922;28;20520;-60
2024/02/11 09:22:18;;;;;;;4.60;3.50;;;5.90;99.90;;;;;;5005745;28;20431;-61
2024/02/11 09:24:44;;;;;;;9.40;5.30;;;6.00;99.90;;;;;;5003425;28;20432;-60
2024/02/11 09:27:10;;;;;;;6.27;3.67;;;6.10;99.90;;;;;;5008050;28;20419;-58
2024/02/11 09:29:37;;;;;;;4.97;3.20;;;6.10;99.90;;;;;;5003971;28;20436;-56
2024/02/11 09:32:03;;;;;;;4.80;3.60;;;6.10;99.90;;;;;;5007343;28;20484;-60
2024/02/11 09:34:29;;;;;;;3.70;3.17;;;6.20;99.90;;;;;;5005899;28;20578;-60
2024/02/11 09:36:55;;;;;;;3.57;3.00;;;6.20;99.90;;;;;;5002543;28;20438;-60
2024/02/11 09:39:20;;;;;;;8.17;2.97;;;6.30;99.90;;;;;;5003791;28;20435;-58
2024/02/11 09:41:46;;;;;;;4.87;3.37;;;6.30;99.90;;;;;;5003044;28;20530;-57
2024/02/11 09:44:14;;;;;;;4.30;3.10;;;6.30;99.90;;;;;;5004797;28;20184;-58
2024/02/11 09:46:45;;;;;;;5.67;3.43;;;6.20;99.90;;;;;;5004951;28;20438;-58
2024/02/11 09:49:15;;;;;;;6.27;4.00;;;6.30;99.90;;;;;;5005929;28;20423;-59
2024/02/11 09:51:41;;;;;;;6.67;4.03;;;6.20;99.90;;;;;;5004287;28;20435;-59
2024/02/11 09:54:07;;;;;;;7.40;4.47;;;6.30;99.90;;;;;;5009681;28;20489;-57
2024/02/11 09:56:33;;;;;;;4.00;3.50;;;6.30;99.90;;;;;;5004882;28;20412;-59
2024/02/11 09:58:59;;;;;;;6.37;4.17;;;6.30;99.90;;;;;;4997919;28;20203;-58
2024/02/11 10:01:25;;;;;;;7.63;5.20;;;6.30;99.90;;;;;;5000925;28;20683;-56
2024/02/11 10:03:53;;;;;;;6.33;3.73;;;6.30;99.90;;;;;;5002482;28;20180;-59
2024/02/11 10:06:26;;;;;;;10.07;5.20;;;6.30;99.90;;;;;;5004733;28;20526;-59
2024/02/11 10:08:52;;;;;;;10.00;5.50;;;6.30;99.90;;;;;;5008656;28;20430;-59
2024/02/11 10:11:18;;;;;;;8.17;4.10;;;6.30;99.90;;;;;;5003675;28;20457;-59
2024/02/11 10:13:44;;;;;;;6.07;3.97;;;6.30;99.90;;;;;;5003251;28;20299;-59
2024/02/11 10:16:12;;;;;;;8.30;4.10;;;6.40;99.90;;;;;;5002841;28;20423;-59
2024/02/11 10:18:39;;;;;;;5.93;4.20;;;6.40;99.90;;;;;;5005137;28;20416;-58
2024/02/11 10:21:08;;;;;;;4.93;3.60;;;6.40;99.90;;;;;;5005841;28;20457;-58
2024/02/11 10:23:38;;;;;;;4.83;3.40;;;6.40;99.90;;;;;;5002803;28;20457;-58
2024/02/11 10:26:07;;;;;;;5.53;3.27;;;6.60;99.90;;;;;;5006449;28;20917;-58
2024/02/11 10:28:37;;;;;;;5.23;4.00;;;6.60;99.90;;;;;;4999637;28;20423;-59
2024/02/11 10:31:03;;;;;;;5.30;3.13;;;6.60;99.90;;;;;;4999091;28;20447;-59
2024/02/11 10:33:29;;;;;;;3.50;3.03;;;6.60;99.90;;;;;;4992718;28;20432;-59
2024/02/11 10:35:59;;;;;;;3.17;2.73;;;6.60;99.90;;;;;;5002873;28;20489;-60
2024/02/11 10:38:25;;;;;;;5.13;3.53;;;6.50;99.90;;;;;;4994146;28;20787;-59
2024/02/11 10:40:52;;;;;;;3.50;3.10;;;6.60;99.90;;;;;;5007670;28;20435;-59
2024/02/11 10:43:21;;;;;;;5.43;3.50;;;6.60;99.90;;;;;;5005651;28;20427;-59
2024/02/11 10:45:47;;;;;;;3.70;2.50;;;6.60;99.90;;;;;;4999163;28;20951;-60
2024/02/11 10:48:12;;;;;;;4.70;2.30;;;6.60;99.90;;;;;;5001440;28;20431;-59
2024/02/11 10:50:38;;;;;;;2.57;2.37;;;6.70;99.90;;;;;;5002374;28;20882;-60
2024/02/11 10:53:06;;;;;;;2.63;2.30;;;6.70;99.90;;;;;;5010438;28;20270;-59
2024/02/11 10:55:44;;;;;;;2.63;2.30;;;6.80;99.90;;;;;;4996486;28;20201;-58
2024/02/11 10:58:12;;;;;;;4.30;2.47;;;6.80;99.90;;;;;;5003034;28;20415;-59
2024/02/11 11:00:39;;;;;;;5.90;2.90;;;6.90;99.90;;;;;;5003411;28;20451;-59
2024/02/11 11:03:09;;;;;;;2.83;2.37;;;6.90;99.90;;;;;;5002938;28;21065;-60
2024/02/11 11:05:38;;;;;;;2.67;2.30;;;6.90;99.90;;;;;;5003079;28;20423;-60
2024/02/11 11:08:05;;;;;;;2.20;2.00;;;6.90;99.90;;;;;;5001800;28;20553;-60
2024/02/11 11:10:36;;;;;;;3.47;2.30;;;7.00;99.90;;;;;;5005591;28;20449;-59
2024/02/11 11:13:02;;;;;;;3.37;2.10;;;7.10;99.90;;;;;;5015647;28;20418;-59
2024/02/11 11:15:32;;;;;;;3.03;1.97;;;7.10;99.90;;;;;;5004172;28;20466;-57
2024/02/11 11:18:01;;;;;;;3.43;2.50;;;7.10;99.90;;;;;;5001711;28;20458;-59
2024/02/11 11:20:27;;;;;;;2.30;2.10;;;7.10;99.90;;;;;;5003153;28;20457;-60
2024/02/11 11:22:56;;;;;;;3.63;2.20;;;7.20;99.90;;;;;;5004120;28;20485;-57
2024/02/11 11:25:32;;;;;;;4.23;2.70;;;7.20;99.90;;;;;;5007265;28;20423;-58
2024/02/11 11:28:11;;;;;;;2.20;2.00;;;7.20;99.90;;;;;;5006520;28;20439;-60
2024/02/11 11:30:37;;;;;;;2.97;2.10;;;7.20;99.90;;;;;;5007555;28;20473;-58
2024/02/11 11:33:06;;;;;;;3.23;1.70;;;7.20;99.90;;;;;;5002651;28;20435;-57
2024/02/11 11:35:34;;;;;;;2.73;2.27;;;7.20;99.90;;;;;;5005268;28;20467;-59
2024/02/11 11:38:01;;;;;;;4.03;1.90;;;7.30;99.90;;;;;;5006170;28;20882;-60
2024/02/11 11:40:32;;;;;;;3.90;2.53;;;7.30;99.90;;;;;;5010249;28;20981;-59
2024/02/11 11:42:57;;;;;;;5.67;2.13;;;7.30;99.90;;;;;;5010474;28;21059;-59
2024/02/11 11:45:23;;;;;;;4.27;2.50;;;7.30;99.90;;;;;;5013046;28;20446;-59
2024/02/11 11:47:51;;;;;;;4.23;2.60;;;7.40;99.90;;;;;;5010459;28;20177;-57
2024/02/11 11:50:19;;;;;;;2.60;2.20;;;7.40;99.90;;;;;;5008193;28;20205;-58
2024/02/11 11:52:47;;;;;;;1.83;1.70;;;7.40;99.90;;;;;;5006830;28;20435;-61
2024/02/11 11:55:13;;;;;;;5.80;2.20;;;7.50;99.90;;;;;;5004385;28;20478;-59
2024/02/11 11:57:39;;;;;;;3.60;2.30;;;7.80;99.90;;;;;;5011019;28;20930;-59
2024/02/11 12:00:07;;;;;;;3.13;2.00;;;8.00;99.90;;;;;;5008867;28;20451;-59
2024/02/11 12:02:35;;;;;;;1.83;1.67;;;8.10;99.90;;;;;;5007072;28;20439;-59
2024/02/11 12:05:01;;;;;;;3.20;2.10;;;8.10;99.90;;;;;;5010546;28;20966;-60
2024/02/11 12:07:29;;;;;;;3.27;2.23;;;8.10;99.90;;;;;;5003498;28;20443;-59
2024/02/11 12:09:56;;;;;;;5.63;2.23;;;8.10;99.90;;;;;;5002993;28;20455;-57
2024/02/11 12:12:22;;;;;;;3.47;1.60;;;8.10;99.90;;;;;;5003919;28;21785;-59
2024/02/11 12:14:48;;;;;;;4.17;2.17;;;8.20;99.90;;;;;;5004485;28;20487;-60
2024/02/11 12:17:14;;;;;;;1.97;1.80;;;8.10;99.90;;;;;;5007741;28;20177;-60
2024/02/11 12:19:43;;;;;;;2.97;1.90;;;8.10;99.90;;;;;;5002657;28;20196;-59
2024/02/11 12:22:09;;;;;;;4.53;1.80;;;8.10;99.90;;;;;;5006435;28;20246;-58
2024/02/11 12:24:38;;;;;;;2.90;1.70;;;8.10;99.90;;;;;;5005132;28;20588;-58
2024/02/11 12:27:04;;;;;;;4.53;1.60;;;8.10;99.90;;;;;;5011694;28;20821;-59
2024/02/11 12:29:31;;;;;;;4.63;1.90;;;8.10;99.90;;;;;;5003403;28;20455;-58
2024/02/11 12:31:56;;;;;;;2.03;1.60;;;8.10;99.90;;;;;;5006297;28;20423;-60
2024/02/11 12:34:25;;;;;;;3.17;1.60;;;8.10;99.90;;;;;;5006213;28;20463;-59
2024/02/11 12:37:03;;;;;;;5.47;1.77;;;8.20;99.90;;;;;;5007546;28;20270;-59
2024/02/11 12:39:30;;;;;;;1.60;1.50;;;8.20;99.90;;;;;;5008822;28;20419;-60
2024/02/11 12:41:55;;;;;;;2.87;1.67;;;8.20;99.90;;;;;;5007256;28;20447;-60
2024/02/11 12:44:22;;;;;;;3.47;1.60;;;8.10;99.90;;;;;;5010130;28;20438;-59
2024/02/11 12:46:48;;;;;;;1.63;1.30;;;8.00;99.90;;;;;;5007828;28;20192;-58
2024/02/11 12:49:13;;;;;;;2.50;1.80;;;7.90;99.90;;;;;;5009656;28;20478;-58
2024/02/11 12:51:40;;;;;;;3.93;1.70;;;7.90;99.90;;;;;;5009176;28;20443;-60
2024/02/11 12:54:06;;;;;;;4.53;2.07;;;7.80;99.90;;;;;;5008450;28;20299;-59